sensor_id;sensor_type;location;lat;lon;timestamp;pressure;altitude;pressure_sealevel;temperature;humidity
13314;BME280;6725;48.112;11.604;2023-02-18T00:02:08;96164.59;;;11.89;100.00
13314;BME280;6725;48.112;11.604;2023-02-18T00:04:33;96163.03;;;11.88;100.00
13314;BME280;6725;48.112;11.604;2023-02-18T00:06:59;96165.00;;;11.84;100.00
13314;BME280;6725;48.112;11.604;2023-02-18T00:09:24;96151.31;;;11.84;100.00
13314;BME280;6725;48.112;11.604;2023-02-18T00:11:50;96158.72;;;11.83;100.00
13314;BME280;6725;48.112;11.604;2023-02-18T00:14:15;96150.13;;;11.78;100.00
13314;BME280;6725;48.112;11.604;2023-02-18T00:16:42;96157.94;;;11.72;100.00
13314;BME280;6725;48.112;11.604;2023-02-18T00:19:11;96142.72;;;11.71;100.00
13314;BME280;6725;48.112;11.604;2023-02-18T00:21:37;96134.50;;;11.61;100.00
13314;BME280;6725;48.112;11.604;2023-02-18T00:24:04;96139.19;;;11.64;100.00
13314;BME280;6725;48.112;11.604;2023-02-18T00:26:31;96129.81;;;11.65;100.00
13314;BME280;6725;48.112;11.604;2023-02-18T00:28:56;96136.47;;;11.67;100.00
13314;BME280;6725;48.112;11.604;2023-02-18T00:31:25;96138.03;;;11.65;100.00
13314;BME280;6725;48.112;11.604;2023-02-18T00:33:51;96125.13;;;11.62;100.00
13314;BME280;6725;48.112;11.604;2023-02-18T00:36:19;96134.47;;;11.57;100.00
13314;BME280;6725;48.112;11.604;2023-02-18T00:38:51;96143.06;;;11.56;100.00
13314;BME280;6725;48.112;11.604;2023-02-18T00:41:18;96133.69;;;11.50;100.00
13314;BME280;6725;48.112;11.604;2023-02-18T00:43:44;96143.84;;;11.49;100.00
13314;BME280;6725;48.112;11.604;2023-02-18T00:46:10;96143.47;;;11.44;100.00
13314;BME280;6725;48.112;11.604;2023-02-18T00:48:35;96136.81;;;11.38;100.00
13314;BME280;6725;48.112;11.604;2023-02-18T00:51:02;96130.53;;;11.37;100.00
13314;BME280;6725;48.112;11.604;2023-02-18T00:53:28;96140.72;;;11.37;100.00
13314;BME280;6725;48.112;11.604;2023-02-18T00:55:54;96136.78;;;11.31;100.00
13314;BME280;6725;48.112;11.604;2023-02-18T00:58:20;96138.38;;;11.28;100.00
13314;BME280;6725;48.112;11.604;2023-02-18T01:00:46;96154.00;;;11.31;100.00
13314;BME280;6725;48.112;11.604;2023-02-18T01:03:11;96154.75;;;11.32;100.00
13314;BME280;6725;48.112;11.604;2023-02-18T01:05:38;96143.03;;;11.28;100.00
13314;BME280;6725;48.112;11.604;2023-02-18T01:08:04;96134.84;;;11.28;100.00
13314;BME280;6725;48.112;11.604;2023-02-18T01:10:30;96131.34;;;11.27;100.00
13314;BME280;6725;48.112;11.604;2023-02-18T01:12:56;96131.31;;;11.31;100.00
13314;BME280;6725;48.112;11.604;2023-02-18T01:15:21;96121.97;;;11.42;100.00
13314;BME280;6725;48.112;11.604;2023-02-18T01:17:47;96134.47;;;11.40;100.00
13314;BME280;6725;48.112;11.604;2023-02-18T01:20:13;96134.47;;;11.40;100.00
13314;BME280;6725;48.112;11.604;2023-02-18T01:22:39;96121.19;;;11.38;100.00
13314;BME280;6725;48.112;11.604;2023-02-18T01:25:05;96134.44;;;11.36;100.00
13314;BME280;6725;48.112;11.604;2023-02-18T01:27:30;96123.53;;;11.33;100.00
13314;BME280;6725;48.112;11.604;2023-02-18T01:29:56;96116.88;;;11.27;100.00
13314;BME280;6725;48.112;11.604;2023-02-18T01:32:21;96112.19;;;11.24;100.00
13314;BME280;6725;48.112;11.604;2023-02-18T01:34:47;96111.41;;;11.20;100.00
13314;BME280;6725;48.112;11.604;2023-02-18T01:37:12;96118.84;;;11.19;100.00
13314;BME280;6725;48.112;11.604;2023-02-18T01:39:38;96111.41;;;11.20;100.00
13314;BME280;6725;48.112;11.604;2023-02-18T01:42:04;96110.22;;;11.21;100.00
13314;BME280;6725;48.112;11.604;2023-02-18T01:44:33;96114.13;;;11.20;100.00
13314;BME280;6725;48.112;11.604;2023-02-18T01:46:58;96115.69;;;11.17;100.00
13314;BME280;6725;48.112;11.604;2023-02-18T01:49:30;96114.13;;;11.13;100.00
13314;BME280;6725;48.112;11.604;2023-02-18T01:52:00;96122.72;;;11.18;100.00
13314;BME280;6725;48.112;11.604;2023-02-18T01:54:29;96114.91;;;11.20;100.00
13314;BME280;6725;48.112;11.604;2023-02-18T01:59:56;96113.38;;;11.30;100.00
13314;BME280;6725;48.112;11.604;2023-02-18T02:02:29;96114.94;;;11.38;100.00
13314;BME280;6725;48.112;11.604;2023-02-18T02:04:56;96111.78;;;11.43;100.00
13314;BME280;6725;48.112;11.604;2023-02-18T02:07:23;96119.63;;;11.48;100.00
13314;BME280;6725;48.112;11.604;2023-02-18T02:09:52;96113.75;;;11.46;100.00
13314;BME280;6725;48.112;11.604;2023-02-18T02:17:36;96104.78;;;11.63;100.00
13314;BME280;6725;48.112;11.604;2023-02-18T02:26:38;96091.53;;;11.65;100.00
13314;BME280;6725;48.112;11.604;2023-02-18T02:34:36;96082.13;;;11.73;100.00
13314;BME280;6725;48.112;11.604;2023-02-18T02:40:17;96098.53;;;11.80;100.00
13314;BME280;6725;48.112;11.604;2023-02-18T02:43:11;96096.16;;;11.82;100.00
13314;BME280;6725;48.112;11.604;2023-02-18T02:46:00;96085.22;;;11.82;100.00
13314;BME280;6725;48.112;11.604;2023-02-18T02:51:46;96091.47;;;11.79;100.00
13314;BME280;6725;48.112;11.604;2023-02-18T02:56:44;96076.63;;;11.87;100.00
13314;BME280;6725;48.112;11.604;2023-02-18T02:59:15;96073.50;;;11.85;100.00
13314;BME280;6725;48.112;11.604;2023-02-18T03:04:53;96057.06;;;11.88;100.00
13314;BME280;6725;48.112;11.604;2023-02-18T03:07:43;96054.34;;;11.85;100.00
13314;BME280;6725;48.112;11.604;2023-02-18T03:13:21;96063.31;;;11.89;100.00
13314;BME280;6725;48.112;11.604;2023-02-18T03:15:52;96060.22;;;11.87;100.00
13314;BME280;6725;48.112;11.604;2023-02-18T03:18:37;96053.94;;;11.86;100.00
13314;BME280;6725;48.112;11.604;2023-02-18T03:21:23;96061.75;;;11.88;100.00
13314;BME280;6725;48.112;11.604;2023-02-18T03:24:19;96061.75;;;11.88;100.00
13314;BME280;6725;48.112;11.604;2023-02-18T03:26:52;96049.25;;;11.83;100.00
13314;BME280;6725;48.112;11.604;2023-02-18T03:29:19;96053.94;;;11.83;100.00
13314;BME280;6725;48.112;11.604;2023-02-18T03:31:49;96059.03;;;11.88;100.00
13314;BME280;6725;48.112;11.604;2023-02-18T03:34:24;96060.56;;;11.96;100.00
13314;BME280;6725;48.112;11.604;2023-02-18T03:36:51;96053.94;;;11.93;100.00
13314;BME280;6725;48.112;11.604;2023-02-18T03:39:19;96062.13;;;11.90;100.00
13314;BME280;6725;48.112;11.604;2023-02-18T03:41:48;96046.16;;;11.81;100.00
13314;BME280;6725;48.112;11.604;2023-02-18T03:44:13;96051.59;;;11.85;100.00
13314;BME280;6725;48.112;11.604;2023-02-18T03:46:41;96052.00;;;11.87;100.00
13314;BME280;6725;48.112;11.604;2023-02-18T03:49:08;96053.16;;;11.86;100.00
13314;BME280;6725;48.112;11.604;2023-02-18T03:51:34;96044.56;;;11.84;100.00
13314;BME280;6725;48.112;11.604;2023-02-18T03:54:00;96047.69;;;11.86;100.00
13314;BME280;6725;48.112;11.604;2023-02-18T03:56:25;96050.81;;;11.88;100.00
13314;BME280;6725;48.112;11.604;2023-02-18T03:58:50;96043.00;;;11.83;100.00
13314;BME280;6725;48.112;11.604;2023-02-18T04:01:16;96045.34;;;11.81;100.00
13314;BME280;6725;48.112;11.604;2023-02-18T04:03:41;96044.97;;;11.82;100.00
13314;BME280;6725;48.112;11.604;2023-02-18T04:06:07;96049.25;;;11.87;100.00
13314;BME280;6725;48.112;11.604;2023-02-18T04:08:32;96039.09;;;11.84;100.00
13314;BME280;6725;48.112;11.604;2023-02-18T04:10:57;96045.34;;;11.84;100.00
13314;BME280;6725;48.112;11.604;2023-02-18T04:13:23;96041.44;;;11.85;100.00
13314;BME280;6725;48.112;11.604;2023-02-18T04:15:49;96042.22;;;11.79;100.00
13314;BME280;6725;48.112;11.604;2023-02-18T04:18:15;96040.66;;;11.78;100.00
13314;BME280;6725;48.112;11.604;2023-02-18T04:20:40;96041.47;;;11.78;100.00
13314;BME280;6725;48.112;11.604;2023-02-18T04:23:06;96035.59;;;11.80;100.00
13314;BME280;6725;48.112;11.604;2023-02-18T04:25:31;96031.69;;;11.74;100.00
13314;BME280;6725;48.112;11.604;2023-02-18T04:27:57;96031.28;;;11.72;100.00
13314;BME280;6725;48.112;11.604;2023-02-18T04:30:23;96028.19;;;11.70;100.00
13314;BME280;6725;48.112;11.604;2023-02-18T04:32:48;96029.75;;;11.71;100.00
13314;BME280;6725;48.112;11.604;2023-02-18T04:35:14;96021.13;;;11.72;100.00
13314;BME280;6725;48.112;11.604;2023-02-18T04:37:39;96019.97;;;11.70;100.00
13314;BME280;6725;48.112;11.604;2023-02-18T04:40:05;96030.53;;;11.68;100.00
13314;BME280;6725;48.112;11.604;2023-02-18T04:42:31;96034.44;;;11.70;100.00
13314;BME280;6725;48.112;11.604;2023-02-18T04:44:56;96032.09;;;11.69;100.00
13314;BME280;6725;48.112;11.604;2023-02-18T04:47:22;96034.84;;;11.65;100.00
13314;BME280;6725;48.112;11.604;2023-02-18T04:49:47;96032.88;;;11.69;100.00
13314;BME280;6725;48.112;11.604;2023-02-18T04:52:13;96048.53;;;11.69;100.00
13314;BME280;6725;48.112;11.604;2023-02-18T04:54:38;96044.19;;;11.68;100.00
13314;BME280;6725;48.112;11.604;2023-02-18T04:57:04;96046.56;;;11.66;100.00
13314;BME280;6725;48.112;11.604;2023-02-18T04:59:29;96056.34;;;11.63;100.00
13314;BME280;6725;48.112;11.604;2023-02-18T05:01:55;96050.09;;;11.63;100.00
13314;BME280;6725;48.112;11.604;2023-02-18T05:04:20;96048.53;;;11.62;100.00
13314;BME280;6725;48.112;11.604;2023-02-18T05:06:46;96050.84;;;11.67;100.00
13314;BME280;6725;48.112;11.604;2023-02-18T05:09:11;96050.47;;;11.65;100.00
13314;BME280;6725;48.112;11.604;2023-02-18T05:11:36;96047.34;;;11.63;100.00
13314;BME280;6725;48.112;11.604;2023-02-18T05:14:02;96038.75;;;11.54;100.00
13314;BME280;6725;48.112;11.604;2023-02-18T05:16:28;96030.91;;;11.56;100.00
13314;BME280;6725;48.112;11.604;2023-02-18T05:18:53;96031.31;;;11.58;100.00
13314;BME280;6725;48.112;11.604;2023-02-18T05:21:18;96025.84;;;11.58;100.00
13314;BME280;6725;48.112;11.604;2023-02-18T05:23:44;96034.41;;;11.60;100.00
13314;BME280;6725;48.112;11.604;2023-02-18T05:26:09;96032.13;;;11.62;100.00
13314;BME280;6725;48.112;11.604;2023-02-18T05:28:34;96027.78;;;11.61;100.00
13314;BME280;6725;48.112;11.604;2023-02-18T05:31:00;96029.00;;;11.63;100.00
13314;BME280;6725;48.112;11.604;2023-02-18T05:33:25;96022.72;;;11.63;100.00
13314;BME280;6725;48.112;11.604;2023-02-18T05:35:51;96029.00;;;11.63;100.00
13314;BME280;6725;48.112;11.604;2023-02-18T05:38:16;96032.13;;;11.62;100.00
13314;BME280;6725;48.112;11.604;2023-02-18T05:40:42;96046.94;;;11.61;100.00
13314;BME280;6725;48.112;11.604;2023-02-18T05:43:07;96035.22;;;11.60;100.00
13314;BME280;6725;48.112;11.604;2023-02-18T05:45:33;96038.72;;;11.68;100.00
13314;BME280;6725;48.112;11.604;2023-02-18T05:47:59;96036.81;;;11.65;100.00
13314;BME280;6725;48.112;11.604;2023-02-18T05:50:24;96036.78;;;11.68;100.00
13314;BME280;6725;48.112;11.604;2023-02-18T05:52:50;96036.81;;;11.65;100.00
13314;BME280;6725;48.112;11.604;2023-02-18T05:55:15;96028.97;;;11.67;100.00
13314;BME280;6725;48.112;11.604;2023-02-18T05:57:41;96033.66;;;11.70;100.00
13314;BME280;6725;48.112;11.604;2023-02-18T06:00:07;96033.63;;;11.73;100.00
13314;BME280;6725;48.112;11.604;2023-02-18T06:02:36;96035.22;;;11.71;100.00
13314;BME280;6725;48.112;11.604;2023-02-18T06:05:03;96030.53;;;11.71;100.00
13314;BME280;6725;48.112;11.604;2023-02-18T06:07:28;96032.47;;;11.71;100.00
13314;BME280;6725;48.112;11.604;2023-02-18T06:09:53;96027.41;;;11.69;100.00
13314;BME280;6725;48.112;11.604;2023-02-18T06:12:19;96031.69;;;11.74;100.00
13314;BME280;6725;48.112;11.604;2023-02-18T06:14:44;96032.09;;;11.72;100.00
13314;BME280;6725;48.112;11.604;2023-02-18T06:17:14;96036.00;;;11.71;100.00
13314;BME280;6725;48.112;11.604;2023-02-18T06:19:39;96039.09;;;11.73;100.00
13314;BME280;6725;48.112;11.604;2023-02-18T06:22:05;96048.50;;;11.76;100.00
13314;BME280;6725;48.112;11.604;2023-02-18T06:24:30;96050.81;;;11.77;100.00
13314;BME280;6725;48.112;11.604;2023-02-18T06:26:56;96042.63;;;11.81;100.00
13314;BME280;6725;48.112;11.604;2023-02-18T06:29:21;96066.47;;;11.84;100.00
13314;BME280;6725;48.112;11.604;2023-02-18T06:31:47;96058.63;;;11.89;100.00
13314;BME280;6725;48.112;11.604;2023-02-18T06:34:12;96061.38;;;11.79;100.00
13314;BME280;6725;48.112;11.604;2023-02-18T06:36:38;96057.09;;;11.78;100.00
13314;BME280;6725;48.112;11.604;2023-02-18T06:39:05;96060.63;;;11.78;100.00
13314;BME280;6725;48.112;11.604;2023-02-18T06:41:31;96060.59;;;11.82;100.00
13314;BME280;6725;48.112;11.604;2023-02-18T06:43:56;96047.31;;;11.80;100.00
13314;BME280;6725;48.112;11.604;2023-02-18T06:46:22;96054.72;;;11.83;100.00
13314;BME280;6725;48.112;11.604;2023-02-18T06:48:47;96055.50;;;11.91;100.00
13314;BME280;6725;48.112;11.604;2023-02-18T06:51:13;96054.31;;;11.92;100.00
13314;BME280;6725;48.112;11.604;2023-02-18T06:53:40;96049.63;;;11.89;100.00
13314;BME280;6725;48.112;11.604;2023-02-18T06:56:06;96052.38;;;11.92;100.00
13314;BME280;6725;48.112;11.604;2023-02-18T06:58:31;96053.91;;;12.00;100.00
13314;BME280;6725;48.112;11.604;2023-02-18T07:00:56;96046.06;;;12.06;100.00
13314;BME280;6725;48.112;11.604;2023-02-18T07:03:22;96049.19;;;12.08;100.00
13314;BME280;6725;48.112;11.604;2023-02-18T07:05:48;96040.56;;;12.13;100.00
13314;BME280;6725;48.112;11.604;2023-02-18T07:08:13;96050.75;;;12.12;100.00
13314;BME280;6725;48.112;11.604;2023-02-18T07:10:39;96048.75;;;12.16;100.00
13314;BME280;6725;48.112;11.604;2023-02-18T07:13:05;96050.34;;;12.14;100.00
13314;BME280;6725;48.112;11.604;2023-02-18T07:15:30;96044.44;;;12.19;100.00
13314;BME280;6725;48.112;11.604;2023-02-18T07:17:56;96038.59;;;12.17;100.00
13314;BME280;6725;48.112;11.604;2023-02-18T07:20:21;96037.41;;;12.18;100.00
13314;BME280;6725;48.112;11.604;2023-02-18T07:22:47;96042.06;;;12.24;100.00
13314;BME280;6725;48.112;11.604;2023-02-18T07:25:14;96037.41;;;12.18;100.00
13314;BME280;6725;48.112;11.604;2023-02-18T07:27:39;96035.84;;;12.24;100.00
13314;BME280;6725;48.112;11.604;2023-02-18T07:30:05;96036.59;;;12.28;100.00
13314;BME280;6725;48.112;11.604;2023-02-18T07:32:31;96033.47;;;12.29;100.00
13314;BME280;6725;48.112;11.604;2023-02-18T07:34:56;96038.16;;;12.29;100.00
13314;BME280;6725;48.112;11.604;2023-02-18T07:37:22;96040.50;;;12.27;100.00
13314;BME280;6725;48.112;11.604;2023-02-18T07:39:47;96040.50;;;12.30;100.00
13314;BME280;6725;48.112;11.604;2023-02-18T07:42:13;96031.91;;;12.21;100.00
13314;BME280;6725;48.112;11.604;2023-02-18T07:44:39;96011.22;;;12.17;100.00
13314;BME280;6725;48.112;11.604;2023-02-18T07:47:05;96034.28;;;12.16;100.00
13314;BME280;6725;48.112;11.604;2023-02-18T07:49:31;96037.38;;;12.25;100.00
13314;BME280;6725;48.112;11.604;2023-02-18T07:51:57;96045.97;;;12.27;100.00
13314;BME280;6725;48.112;11.604;2023-02-18T07:54:23;96045.97;;;12.27;100.00
13314;BME280;6725;48.112;11.604;2023-02-18T07:56:48;96040.84;;;12.32;100.00
13314;BME280;6725;48.112;11.604;2023-02-18T07:59:14;96042.84;;;12.32;100.00
13314;BME280;6725;48.112;11.604;2023-02-18T08:01:40;96044.34;;;12.47;100.00
13314;BME280;6725;48.112;11.604;2023-02-18T08:04:06;96027.09;;;12.46;100.00
13314;BME280;6725;48.112;11.604;2023-02-18T08:06:34;96040.84;;;12.36;100.00
13314;BME280;6725;48.112;11.604;2023-02-18T08:09:00;96039.28;;;12.42;100.00
13314;BME280;6725;48.112;11.604;2023-02-18T08:11:25;96023.22;;;12.44;100.00
13314;BME280;6725;48.112;11.604;2023-02-18T08:13:51;96008.31;;;12.45;100.00
13314;BME280;6725;48.112;11.604;2023-02-18T08:16:18;95997.38;;;12.48;100.00
13314;BME280;6725;48.112;11.604;2023-02-18T08:18:44;96020.34;;;12.65;100.00
13314;BME280;6725;48.112;11.604;2023-02-18T08:21:12;96010.59;;;12.64;100.00
13314;BME280;6725;48.112;11.604;2023-02-18T08:23:37;96009.72;;;12.74;100.00
13314;BME280;6725;48.112;11.604;2023-02-18T08:26:03;95995.66;;;12.68;100.00
13314;BME280;6725;48.112;11.604;2023-02-18T08:28:29;96009.75;;;12.70;100.00
13314;BME280;6725;48.112;11.604;2023-02-18T08:30:54;95997.91;;;12.84;100.00
13314;BME280;6725;48.112;11.604;2023-02-18T08:33:20;96002.53;;;12.94;100.00
13314;BME280;6725;48.112;11.604;2023-02-18T08:35:47;96009.56;;;13.02;100.00
13314;BME280;6725;48.112;11.604;2023-02-18T08:38:14;95993.00;;;13.16;100.00
13314;BME280;6725;48.112;11.604;2023-02-18T08:40:39;95986.13;;;13.38;100.00
13314;BME280;6725;48.112;11.604;2023-02-18T08:43:08;95972.06;;;13.32;100.00
13314;BME280;6725;48.112;11.604;2023-02-18T08:45:33;95982.41;;;13.55;100.00
13314;BME280;6725;48.112;11.604;2023-02-18T08:47:58;95985.06;;;13.99;100.00
13314;BME280;6725;48.112;11.604;2023-02-18T08:50:24;95969.13;;;14.77;100.00
13314;BME280;6725;48.112;11.604;2023-02-18T08:52:52;95955.19;;;14.91;100.00
13314;BME280;6725;48.112;11.604;2023-02-18T08:55:17;95979.31;;;14.80;100.00
13314;BME280;6725;48.112;11.604;2023-02-18T08:57:47;95969.47;;;15.94;100.00
13314;BME280;6725;48.112;11.604;2023-02-18T09:00:14;95971.16;;;16.27;100.00
13314;BME280;6725;48.112;11.604;2023-02-18T09:02:39;95955.00;;;16.10;100.00
13314;BME280;6725;48.112;11.604;2023-02-18T09:05:05;95960.94;;;15.46;100.00
13314;BME280;6725;48.112;11.604;2023-02-18T09:07:30;95973.47;;;15.01;100.00
13314;BME280;6725;48.112;11.604;2023-02-18T09:09:55;95983.75;;;14.97;100.00
13314;BME280;6725;48.112;11.604;2023-02-18T09:12:21;95999.00;;;14.75;100.00
13314;BME280;6725;48.112;11.604;2023-02-18T09:14:47;95969.28;;;14.67;100.00
13314;BME280;6725;48.112;11.604;2023-02-18T09:17:12;95985.00;;;14.66;100.00
13314;BME280;6725;48.112;11.604;2023-02-18T09:19:38;95982.31;;;14.63;100.00
13314;BME280;6725;48.112;11.604;2023-02-18T09:22:03;95979.22;;;14.31;100.00
13314;BME280;6725;48.112;11.604;2023-02-18T09:24:29;95943.78;;;14.06;100.00
13314;BME280;6725;48.112;11.604;2023-02-18T09:26:54;95974.78;;;14.07;100.00
13314;BME280;6725;48.112;11.604;2023-02-18T09:29:20;95966.94;;;14.09;100.00
13314;BME280;6725;48.112;11.604;2023-02-18T09:31:45;95976.25;;;14.15;100.00
13314;BME280;6725;48.112;11.604;2023-02-18T09:34:11;95980.91;;;14.21;100.00
13314;BME280;6725;48.112;11.604;2023-02-18T09:36:38;95964.22;;;14.35;100.00
13314;BME280;6725;48.112;11.604;2023-02-18T09:39:04;95976.56;;;14.54;100.00
13314;BME280;6725;48.112;11.604;2023-02-18T09:41:37;95960.00;;;14.57;100.00
13314;BME280;6725;48.112;11.604;2023-02-18T09:44:19;95953.13;;;14.46;100.00
13314;BME280;6725;48.112;11.604;2023-02-18T09:46:59;95946.94;;;14.65;100.00
13314;BME280;6725;48.112;11.604;2023-02-18T09:49:27;95952.31;;;14.98;100.00
13314;BME280;6725;48.112;11.604;2023-02-18T09:51:54;95933.53;;;15.39;100.00
13314;BME280;6725;48.112;11.604;2023-02-18T09:54:20;95935.75;;;15.67;100.00
13314;BME280;6725;48.112;11.604;2023-02-18T09:56:47;95919.91;;;16.50;100.00
13314;BME280;6725;48.112;11.604;2023-02-18T09:59:21;95928.22;;;17.46;100.00
13314;BME280;6725;48.112;11.604;2023-02-18T10:01:49;95918.47;;;17.41;100.00
13314;BME280;6725;48.112;11.604;2023-02-18T10:04:24;95902.16;;;16.99;100.00
13314;BME280;6725;48.112;11.604;2023-02-18T10:06:52;95918.53;;;16.58;100.00
13314;BME280;6725;48.112;11.604;2023-02-18T10:09:20;95930.38;;;16.90;100.00
13314;BME280;6725;48.112;11.604;2023-02-18T10:11:56;95920.38;;;17.73;100.00
13314;BME280;6725;48.112;11.604;2023-02-18T10:14:23;95905.50;;;17.83;100.00
13314;BME280;6725;48.112;11.604;2023-02-18T10:16:51;95895.06;;;18.03;100.00
13314;BME280;6725;48.112;11.604;2023-02-18T10:19:28;95903.09;;;18.38;100.00
13314;BME280;6725;48.112;11.604;2023-02-18T10:21:54;95893.06;;;18.16;100.00
13314;BME280;6725;48.112;11.604;2023-02-18T10:24:32;95880.06;;;17.75;100.00
13314;BME280;6725;48.112;11.604;2023-02-18T10:26:59;95887.25;;;17.85;100.00
13314;BME280;6725;48.112;11.604;2023-02-18T10:29:27;95883.81;;;17.81;100.00
13314;BME280;6725;48.112;11.604;2023-02-18T10:32:00;95869.63;;;18.08;100.00
13314;BME280;6725;48.112;11.604;2023-02-18T10:34:39;95867.50;;;17.99;100.00
13314;BME280;6725;48.112;11.604;2023-02-18T10:45:47;95857.84;;;18.82;100.00
13314;BME280;6725;48.112;11.604;2023-02-18T10:48:22;95852.28;;;18.95;100.00
13314;BME280;6725;48.112;11.604;2023-02-18T10:50:50;95845.94;;;19.07;100.00
13314;BME280;6725;48.112;11.604;2023-02-18T10:53:36;95835.56;;;18.86;100.00
13314;BME280;6725;48.112;11.604;2023-02-18T10:56:04;95844.16;;;19.13;100.00
13314;BME280;6725;48.112;11.604;2023-02-18T10:58:34;95829.91;;;19.02;100.00
13314;BME280;6725;48.112;11.604;2023-02-18T11:01:04;95831.19;;;18.51;100.00
13314;BME280;6725;48.112;11.604;2023-02-18T11:03:44;95817.00;;;18.49;100.00
13314;BME280;6725;48.112;11.604;2023-02-18T11:11:51;95805.22;;;18.95;100.00
13314;BME280;6725;48.112;11.604;2023-02-18T11:14:36;95794.44;;;18.97;100.00
13314;BME280;6725;48.112;11.604;2023-02-18T11:17:26;95789.03;;;18.59;100.00
13314;BME280;6725;48.112;11.604;2023-02-18T11:19:57;95785.25;;;18.28;100.00
13314;BME280;6725;48.112;11.604;2023-02-18T11:22:31;95783.16;;;18.20;100.00
13314;BME280;6725;48.112;11.604;2023-02-18T11:24:59;95784.72;;;18.21;100.00
13314;BME280;6725;48.112;11.604;2023-02-18T11:28:04;95787.66;;;17.76;100.00
13314;BME280;6725;48.112;11.604;2023-02-18T11:30:42;95776.94;;;17.66;100.00
13314;BME280;6725;48.112;11.604;2023-02-18T11:33:17;95780.72;;;17.15;100.00
13314;BME280;6725;48.112;11.604;2023-02-18T11:35:49;95784.59;;;17.46;100.00
13314;BME280;6725;48.112;11.604;2023-02-18T11:38:28;95773.31;;;17.12;100.00
13314;BME280;6725;48.112;11.604;2023-02-18T11:41:10;95777.22;;;17.27;100.00
13314;BME280;6725;48.112;11.604;2023-02-18T11:43:41;95778.56;;;17.35;100.00
13314;BME280;6725;48.112;11.604;2023-02-18T11:46:12;95775.69;;;17.26;100.00
13314;BME280;6725;48.112;11.604;2023-02-18T11:48:39;95770.00;;;17.17;100.00
13314;BME280;6725;48.112;11.604;2023-02-18T11:51:09;95780.84;;;17.24;100.00
13314;BME280;6725;48.112;11.604;2023-02-18T11:53:37;95775.53;;;17.45;100.00
13314;BME280;6725;48.112;11.604;2023-02-18T11:56:07;95765.03;;;17.12;100.00
13314;BME280;6725;48.112;11.604;2023-02-18T11:58:43;95756.22;;;16.88;100.00
13314;BME280;6725;48.112;11.604;2023-02-18T12:01:27;95764.88;;;17.03;100.00
13314;BME280;6725;48.112;11.604;2023-02-18T12:03:57;95751.25;;;16.96;100.00
13314;BME280;6725;48.112;11.604;2023-02-18T12:06:31;95741.94;;;16.77;100.00
13314;BME280;6725;48.112;11.604;2023-02-18T12:09:04;95736.94;;;17.01;100.00
13314;BME280;6725;48.112;11.604;2023-02-18T12:11:37;95743.81;;;17.09;100.00
13314;BME280;6725;48.112;11.604;2023-02-18T12:14:08;95735.88;;;17.11;100.00
13314;BME280;6725;48.112;11.604;2023-02-18T12:17:00;95735.16;;;17.23;100.00
13314;BME280;6725;48.112;11.604;2023-02-18T12:26:25;95728.41;;;17.24;100.00
13314;BME280;6725;48.112;11.604;2023-02-18T12:32:10;95695.56;;;17.42;100.00
13314;BME280;6725;48.112;11.604;2023-02-18T12:34:52;95691.06;;;17.48;100.00
13314;BME280;6725;48.112;11.604;2023-02-18T12:37:41;95698.50;;;17.35;100.00
13314;BME280;6725;48.112;11.604;2023-02-18T13:07:40;95688.78;;;16.61;100.00
13314;BME280;6725;48.112;11.604;2023-02-18T13:13:00;95707.53;;;16.82;100.00
13314;BME280;6725;48.112;11.604;2023-02-18T13:15:43;95675.41;;;16.88;100.00
13314;BME280;6725;48.112;11.604;2023-02-18T13:18:12;95684.16;;;16.99;100.00
13314;BME280;6725;48.112;11.604;2023-02-18T13:20:44;95679.53;;;16.96;100.00
13314;BME280;6725;48.112;11.604;2023-02-18T13:23:22;95680.47;;;17.18;100.00
13314;BME280;6725;48.112;11.604;2023-02-18T13:25:54;95679.22;;;17.06;100.00
13314;BME280;6725;48.112;11.604;2023-02-18T13:34:31;95670.25;;;16.90;100.00
13314;BME280;6725;48.112;11.604;2023-02-18T13:37:09;95662.41;;;16.88;100.00
13314;BME280;6725;48.112;11.604;2023-02-18T13:39:38;95669.28;;;16.68;100.00
13314;BME280;6725;48.112;11.604;2023-02-18T13:52:50;95685.44;;;16.53;100.00
13314;BME280;6725;48.112;11.604;2023-02-18T13:55:21;95690.44;;;16.42;100.00
13314;BME280;6725;48.112;11.604;2023-02-18T13:57:53;95684.75;;;16.49;100.00
13314;BME280;6725;48.112;11.604;2023-02-18T14:00:22;95670.09;;;16.36;100.00
13314;BME280;6725;48.112;11.604;2023-02-18T14:02:57;95678.13;;;16.30;100.00
13314;BME280;6725;48.112;11.604;2023-02-18T14:05:24;95671.22;;;16.22;100.00
13314;BME280;6725;48.112;11.604;2023-02-18T14:08:11;95678.22;;;15.95;100.00
13314;BME280;6725;48.112;11.604;2023-02-18T14:10:37;95668.16;;;15.88;100.00
13314;BME280;6725;48.112;11.604;2023-02-18T14:15:49;95676.25;;;15.79;100.00
13314;BME280;6725;48.112;11.604;2023-02-18T14:20:49;95657.81;;;15.60;100.00
13314;BME280;6725;48.112;11.604;2023-02-18T14:33:36;95675.47;;;15.79;100.00
13314;BME280;6725;48.112;11.604;2023-02-18T14:36:51;95680.72;;;15.57;100.00
13314;BME280;6725;48.112;11.604;2023-02-18T14:49:57;95682.28;;;15.19;100.00
13314;BME280;6725;48.112;11.604;2023-02-18T14:52:33;95666.88;;;15.06;100.00
13314;BME280;6725;48.112;11.604;2023-02-18T14:55:02;95653.25;;;14.99;100.00
13314;BME280;6725;48.112;11.604;2023-02-18T14:57:38;95661.38;;;15.06;100.00
13314;BME280;6725;48.112;11.604;2023-02-18T15:00:13;95651.44;;;14.92;100.00
13314;BME280;6725;48.112;11.604;2023-02-18T15:02:38;95664.13;;;14.86;100.00
13314;BME280;6725;48.112;11.604;2023-02-18T15:05:11;95664.97;;;14.83;100.00
13314;BME280;6725;48.112;11.604;2023-02-18T15:07:37;95656.53;;;14.74;100.00
13314;BME280;6725;48.112;11.604;2023-02-18T15:10:03;95653.56;;;14.65;100.00
13314;BME280;6725;48.112;11.604;2023-02-18T15:12:28;95645.25;;;14.69;100.00